Terminal Aerodrome Forecast
Issued by NWS Sterling, VA

Current Version | Previous Version | Graphics & Text | Print | Product List | Glossary On
Versions: 1 2 3 4 5 6 7 8 9 10 11 12 13 14 15 16 17 18 19 20 21 22 23
000
FTUS41 KLWX 291400 AAA
TAFDCA
TAF AMD
KDCA 291456Z 2915/3012 VRB04KT P6SM BKN100
     FM291600 16008G16KT P6SM SCT050 OVC090
     FM292100 16010KT 3SM -RAPL BKN025 OVC050
     FM300000 17008KT P6SM BKN050
     FM300400 22008KT P6SM BKN050
     FM300900 29012KT P6SM BKN050=

USA.gov is the U.S. government's official web portal to all federal, state and local government web resources and services.